< < Back
Terminal Aerodrome Forecast


Current Version              Previous Versions:   1  2  3  4  5  6  7  8  9  

Terminal Aerodrome Forecast

840
FTUS42 KJAX 291120
TAFJAX
TAF
KJAX 291120Z 2912/3012 28008KT P6SM FEW025
     FM291400 31011G16KT P6SM SCT030
     FM292000 34008KT P6SM SCT040 SCT150
     FM300000 VRB03KT P6SM FEW040 FEW150=

Latest METAR

900
SAUS80 KWBC 291600 CCA
MTRJAX
METAR KJAX 291556Z 32014G19KT 10SM SCT039 SCT250 29/19 A3007 RMK AO2
SLP182 T02940189 $


USA.gov is the U.S. government's official web portal to all federal, state and local government web resources and services.